createdAt,value
2018-06-29T00:00:35.084Z,52.43
2018-06-29T00:01:34.789Z,52.43
2018-06-29T00:02:35.021Z,52.44
2018-06-29T00:03:34.947Z,52.4
2018-06-29T00:04:34.925Z,52.43
2018-06-29T00:05:35.146Z,52.48
2018-06-29T00:06:34.918Z,52.47
2018-06-29T00:07:34.962Z,52.34
2018-06-29T00:08:34.837Z,52.34
2018-06-29T00:09:35.091Z,52.33
2018-06-29T00:10:34.828Z,52.47
2018-06-29T00:11:34.983Z,52.38
2018-06-29T00:12:34.974Z,52.47
2018-06-29T00:13:34.950Z,52.48
2018-06-29T00:14:35.120Z,52.34
2018-06-29T00:15:34.828Z,52.54
2018-06-29T00:16:35.018Z,52.27
2018-06-29T00:17:34.997Z,52.31
2018-06-29T00:18:34.874Z,52.15
2018-06-29T00:19:34.848Z,52.48
2018-06-29T00:20:35.144Z,52.77
2018-06-29T00:21:34.866Z,52.4
2018-06-29T00:22:34.863Z,52.5
2018-06-29T00:23:34.973Z,52.57
2018-06-29T00:24:35.434Z,52.47
2018-06-29T00:25:35.043Z,52.31
2018-06-29T00:26:34.803Z,52.68
2018-06-29T00:27:35.052Z,52.59
2018-06-29T00:28:34.795Z,52.51
2018-06-29T00:29:35.137Z,52.61
2018-06-29T00:30:35.321Z,52.55
2018-06-29T00:31:34.947Z,52.6
2018-06-29T00:32:35.138Z,52.57
2018-06-29T00:33:34.957Z,52.54
2018-06-29T00:34:35.154Z,52.65
2018-06-29T00:35:34.992Z,52.68
2018-06-29T00:36:35.003Z,52.65
2018-06-29T00:37:34.977Z,52.66
2018-06-29T00:38:35.030Z,52.76
2018-06-29T00:39:35.020Z,52.61
2018-06-29T00:40:34.955Z,52.53
2018-06-29T00:41:35.030Z,52.84
2018-06-29T00:42:35.012Z,52.89
2018-06-29T00:43:35.152Z,52.65
2018-06-29T00:44:35.022Z,52.74
2018-06-29T00:45:34.905Z,52.83
2018-06-29T00:46:34.860Z,52.88
2018-06-29T00:47:34.859Z,52.78
2018-06-29T00:48:34.872Z,52.76
2018-06-29T00:49:35.071Z,52.56
2018-06-29T00:50:35.060Z,52.44
2018-06-29T00:51:35.068Z,52.73
2018-06-29T00:52:35.077Z,52.76
2018-06-29T00:53:34.947Z,52.78
2018-06-29T00:54:35.140Z,52.7
2018-06-29T00:55:34.828Z,52.74
2018-06-29T00:56:34.907Z,52.86
2018-06-29T00:57:34.909Z,52.75
2018-06-29T00:58:34.873Z,52.52
2018-06-29T00:59:35.144Z,52.74
2018-06-29T01:00:35.081Z,52.59
2018-06-29T01:01:35.000Z,52.7
2018-06-29T01:02:35.005Z,52.83
2018-06-29T01:03:34.877Z,52.59
2018-06-29T01:04:35.132Z,52.71
2018-06-29T01:05:35.024Z,52.78
2018-06-29T01:06:34.776Z,52.92
2018-06-29T01:07:34.906Z,53.05
2018-06-29T01:08:35.040Z,52.91
2018-06-29T01:09:34.928Z,52.78
2018-06-29T01:10:35.022Z,52.72
2018-06-29T01:11:34.970Z,52.52
2018-06-29T01:12:35.009Z,52.63
2018-06-29T01:13:35.006Z,52.81
2018-06-29T01:14:34.801Z,52.68
2018-06-29T01:15:34.784Z,52.64
2018-06-29T01:16:34.908Z,52.84
2018-06-29T01:17:35.035Z,52.72
2018-06-29T01:18:34.761Z,52.76
2018-06-29T01:19:34.754Z,52.61
2018-06-29T01:20:35.119Z,52.67
2018-06-29T01:21:35.042Z,52.77
2018-06-29T01:22:34.828Z,52.68
2018-06-29T01:23:34.849Z,52.79
2018-06-29T01:24:34.735Z,52.7
2018-06-29T01:25:35.051Z,52.64
2018-06-29T01:26:34.872Z,52.67
2018-06-29T01:27:34.794Z,52.8
2018-06-29T01:28:34.991Z,52.72
2018-06-29T01:29:34.915Z,52.84
2018-06-29T01:30:34.785Z,52.74
2018-06-29T01:31:34.832Z,52.79
2018-06-29T01:32:34.844Z,52.69
2018-06-29T01:33:34.703Z,52.78
2018-06-29T01:34:35.104Z,52.82
2018-06-29T01:35:34.802Z,52.86
2018-06-29T01:36:34.894Z,52.92
2018-06-29T01:37:34.873Z,52.62
2018-06-29T01:38:34.867Z,52.68
2018-06-29T01:39:34.829Z,52.8
2018-06-29T01:40:34.944Z,52.8
2018-06-29T01:41:34.931Z,52.83
2018-06-29T01:42:44.915Z,52.77
2018-06-29T01:43:34.873Z,52.82
2018-06-29T01:44:34.778Z,52.92
2018-06-29T01:45:35.040Z,52.76
2018-06-29T01:46:34.996Z,52.89
2018-06-29T01:47:34.892Z,52.88
2018-06-29T01:48:34.954Z,52.8
2018-06-29T01:49:34.945Z,52.8
2018-06-29T01:50:34.897Z,52.83
2018-06-29T01:51:34.805Z,52.85
2018-06-29T01:52:35.068Z,52.83
2018-06-29T01:53:34.803Z,52.79
2018-06-29T01:54:34.781Z,52.87
2018-06-29T01:55:34.891Z,52.78
2018-06-29T01:56:34.960Z,52.82
2018-06-29T01:57:35.096Z,52.81
2018-06-29T01:58:35.027Z,52.87
2018-06-29T01:59:34.942Z,52.78
2018-06-29T02:00:34.841Z,52.65
2018-06-29T02:01:34.991Z,52.69
2018-06-29T02:02:34.938Z,52.9
2018-06-29T02:03:34.916Z,52.77
2018-06-29T02:04:34.958Z,52.78
2018-06-29T02:05:34.921Z,52.8
2018-06-29T02:06:34.858Z,52.84
2018-06-29T02:07:34.892Z,52.79
2018-06-29T02:08:34.905Z,52.82
2018-06-29T02:09:34.756Z,52.86
2018-06-29T02:10:35.006Z,52.6
2018-06-29T02:11:35.003Z,52.82
2018-06-29T02:12:34.857Z,52.91
2018-06-29T02:13:35.016Z,52.79
2018-06-29T02:14:34.901Z,52.65
2018-06-29T02:15:34.801Z,52.69
2018-06-29T02:16:34.998Z,52.76
2018-06-29T02:17:35.067Z,52.88
2018-06-29T02:18:34.830Z,52.79
2018-06-29T02:19:34.805Z,52.87
2018-06-29T02:20:35.084Z,52.85
2018-06-29T02:21:34.733Z,52.86
2018-06-29T02:22:35.080Z,52.83
2018-06-29T02:23:35.009Z,52.77
2018-06-29T02:24:34.917Z,52.79
2018-06-29T02:25:34.756Z,52.82
2018-06-29T02:26:34.913Z,52.84
2018-06-29T02:27:34.953Z,52.89
2018-06-29T02:28:34.867Z,52.83
2018-06-29T02:29:34.909Z,52.81
2018-06-29T02:30:35.020Z,52.75
2018-06-29T02:31:34.882Z,52.71
2018-06-29T02:32:34.758Z,52.95
2018-06-29T02:33:34.864Z,52.88
2018-06-29T02:34:34.796Z,52.82
2018-06-29T02:35:34.821Z,52.77
2018-06-29T02:36:34.947Z,52.77
2018-06-29T02:37:34.827Z,52.93
2018-06-29T02:38:34.997Z,52.78
2018-06-29T02:39:34.820Z,52.8
2018-06-29T02:40:34.897Z,52.83
2018-06-29T02:41:34.850Z,52.93
2018-06-29T02:42:34.830Z,52.77
2018-06-29T02:43:34.873Z,52.84
2018-06-29T02:44:34.827Z,52.83
2018-06-29T02:45:34.741Z,52.83
2018-06-29T02:46:34.917Z,52.89
2018-06-29T02:47:34.983Z,52.83
2018-06-29T02:48:34.923Z,52.82
2018-06-29T02:49:34.876Z,52.84
2018-06-29T02:50:34.775Z,52.74
2018-06-29T02:51:34.879Z,52.94
2018-06-29T02:52:34.913Z,52.96
2018-06-29T02:53:35.024Z,52.83
2018-06-29T02:54:34.814Z,52.85
2018-06-29T02:55:34.816Z,52.8
2018-06-29T02:56:34.981Z,52.76
2018-06-29T02:57:34.875Z,52.78
2018-06-29T02:58:34.855Z,52.81
2018-06-29T02:59:34.827Z,53.09
2018-06-29T03:00:35.006Z,52.8
2018-06-29T03:01:34.868Z,52.81
2018-06-29T03:02:34.992Z,52.96
2018-06-29T03:03:35.033Z,52.75
2018-06-29T03:04:34.849Z,52.79
2018-06-29T03:05:34.728Z,52.83
2018-06-29T03:06:34.961Z,52.86
2018-06-29T03:07:34.877Z,52.9
2018-06-29T03:08:34.849Z,52.78
2018-06-29T03:09:35.002Z,52.69
2018-06-29T03:10:34.893Z,52.72
2018-06-29T03:11:34.965Z,52.72
2018-06-29T03:12:35.003Z,52.77
2018-06-29T03:13:34.969Z,52.9
2018-06-29T03:14:34.925Z,52.72
2018-06-29T03:15:34.903Z,52.93
2018-06-29T03:16:34.910Z,52.78
2018-06-29T03:17:34.930Z,52.73
2018-06-29T03:18:35.064Z,52.86
2018-06-29T03:19:35.102Z,52.89
2018-06-29T03:20:34.944Z,52.79
2018-06-29T03:21:34.980Z,52.84
2018-06-29T03:22:34.974Z,52.77
2018-06-29T03:23:34.984Z,52.78
2018-06-29T03:24:34.981Z,52.91
2018-06-29T03:25:34.829Z,52.66
2018-06-29T03:26:34.782Z,52.73
2018-06-29T03:27:34.997Z,52.69
2018-06-29T03:28:34.858Z,52.57
2018-06-29T03:29:34.867Z,52.62
2018-06-29T03:30:34.811Z,52.76
2018-06-29T03:31:35.028Z,52.82
2018-06-29T03:32:35.092Z,52.85
2018-06-29T03:33:34.819Z,52.65
2018-06-29T03:34:34.799Z,52.93
2018-06-29T03:35:35.003Z,52.69
2018-06-29T03:36:35.044Z,52.74
2018-06-29T03:37:34.893Z,52.67
2018-06-29T03:38:34.738Z,52.84
2018-06-29T03:39:34.730Z,52.64
2018-06-29T03:40:35.203Z,52.89
2018-06-29T03:41:34.949Z,52.88
2018-06-29T03:42:35.046Z,52.73
2018-06-29T03:43:34.873Z,52.72
2018-06-29T03:44:34.919Z,52.76
2018-06-29T03:45:34.824Z,52.63
2018-06-29T03:46:34.768Z,52.77
2018-06-29T03:47:34.995Z,52.68
2018-06-29T03:48:35.084Z,52.78
2018-06-29T03:49:34.985Z,52.83
2018-06-29T03:50:34.940Z,52.78
2018-06-29T03:51:34.886Z,52.81
2018-06-29T03:52:34.947Z,52.92
2018-06-29T03:53:34.784Z,52.77
2018-06-29T03:54:34.806Z,52.85
2018-06-29T03:55:34.795Z,52.73
2018-06-29T03:56:34.949Z,52.7
2018-06-29T03:57:34.744Z,52.8
2018-06-29T03:58:34.853Z,52.75
2018-06-29T03:59:34.947Z,52.77
2018-06-29T04:00:34.760Z,52.67
2018-06-29T04:01:34.802Z,52.8
2018-06-29T04:02:34.871Z,52.76
2018-06-29T04:03:35.208Z,52.89
2018-06-29T04:04:34.731Z,52.78
2018-06-29T04:05:34.915Z,52.6
2018-06-29T04:06:34.866Z,52.76
2018-06-29T04:07:34.874Z,52.74
2018-06-29T04:08:35.023Z,52.73
2018-06-29T04:09:34.722Z,52.76
2018-06-29T04:10:34.869Z,52.77
2018-06-29T04:11:35.063Z,52.78
2018-06-29T04:12:35.066Z,52.78
2018-06-29T04:13:34.879Z,52.77
2018-06-29T04:14:34.748Z,52.84
2018-06-29T04:15:34.923Z,52.8
2018-06-29T04:16:34.908Z,52.79
2018-06-29T04:17:34.890Z,52.73
2018-06-29T04:18:35.257Z,52.76
2018-06-29T04:19:34.843Z,52.89
2018-06-29T04:20:34.796Z,52.83
2018-06-29T04:21:34.962Z,52.77
2018-06-29T04:22:34.718Z,52.75
2018-06-29T04:23:34.812Z,52.67
2018-06-29T04:24:34.937Z,52.79
2018-06-29T04:25:34.817Z,52.84
2018-06-29T04:26:35.082Z,52.78
2018-06-29T04:27:34.962Z,52.83
2018-06-29T04:28:34.925Z,52.87
2018-06-29T04:29:34.839Z,52.64
2018-06-29T04:30:34.700Z,52.92
2018-06-29T04:31:34.789Z,52.83
2018-06-29T04:32:34.832Z,52.81
2018-06-29T04:33:34.648Z,52.94
2018-06-29T04:34:35.203Z,52.75
2018-06-29T04:35:34.870Z,52.9
2018-06-29T04:36:34.897Z,52.77
2018-06-29T04:37:34.828Z,52.79
2018-06-29T04:38:35.176Z,52.87
2018-06-29T04:39:34.881Z,52.81
2018-06-29T04:40:34.884Z,52.58
2018-06-29T04:41:34.758Z,52.81
2018-06-29T04:42:34.789Z,52.92
2018-06-29T04:43:34.878Z,52.87
2018-06-29T04:44:34.761Z,52.71
2018-06-29T04:45:34.956Z,52.88
2018-06-29T04:46:34.829Z,52.92
2018-06-29T04:47:34.972Z,52.75
2018-06-29T04:48:34.767Z,52.66
2018-06-29T04:49:34.881Z,52.84
2018-06-29T04:50:34.832Z,52.83
2018-06-29T04:51:34.751Z,52.81
2018-06-29T04:52:34.849Z,52.59
2018-06-29T04:53:34.719Z,52.87
2018-06-29T04:54:34.822Z,52.86
2018-06-29T04:55:34.901Z,52.88
2018-06-29T04:56:34.833Z,52.99
2018-06-29T04:57:34.861Z,52.77
2018-06-29T04:58:34.910Z,52.69
2018-06-29T04:59:34.878Z,52.8
2018-06-29T05:00:34.772Z,52.74
2018-06-29T05:01:34.879Z,52.78
2018-06-29T05:02:34.695Z,52.65
2018-06-29T05:03:34.762Z,52.73
2018-06-29T05:04:34.983Z,52.94
2018-06-29T05:05:34.858Z,52.7
2018-06-29T05:06:34.862Z,52.88
2018-06-29T05:07:34.839Z,52.92
2018-06-29T05:08:34.874Z,52.78
2018-06-29T05:09:34.834Z,52.89
2018-06-29T05:10:34.899Z,52.78
2018-06-29T05:11:34.617Z,52.8
2018-06-29T05:12:34.826Z,52.68
2018-06-29T05:13:35.024Z,52.82
2018-06-29T05:14:34.785Z,52.9
2018-06-29T05:15:35.014Z,52.83
2018-06-29T05:16:34.948Z,52.75
2018-06-29T05:17:34.880Z,52.75
2018-06-29T05:18:34.764Z,52.81
2018-06-29T05:19:34.725Z,52.78
2018-06-29T05:20:34.670Z,52.77
2018-06-29T05:21:35.056Z,52.77
2018-06-29T05:22:34.837Z,52.79
2018-06-29T05:23:34.713Z,52.74
2018-06-29T05:24:34.971Z,52.89
2018-06-29T05:25:34.843Z,52.69
2018-06-29T05:26:34.730Z,52.84
2018-06-29T05:27:34.941Z,52.77
2018-06-29T05:28:35.053Z,52.84
2018-06-29T05:29:44.794Z,52.8
2018-06-29T05:30:34.863Z,52.81
2018-06-29T05:31:35.032Z,52.84
2018-06-29T05:32:34.836Z,52.81
2018-06-29T05:33:34.757Z,52.92
2018-06-29T05:34:34.823Z,52.74
2018-06-29T05:35:34.891Z,52.78
2018-06-29T05:36:34.963Z,52.72
2018-06-29T05:37:34.867Z,52.84
2018-06-29T05:38:34.851Z,52.8
2018-06-29T05:39:35.011Z,52.73
2018-06-29T05:40:34.779Z,52.7
2018-06-29T05:41:34.848Z,52.7
2018-06-29T05:42:35.048Z,52.84
2018-06-29T05:43:34.973Z,52.83
2018-06-29T05:44:34.935Z,52.68
2018-06-29T05:45:34.805Z,53.05
2018-06-29T05:46:35.090Z,52.75
2018-06-29T05:47:34.828Z,52.85
2018-06-29T05:48:34.938Z,52.86
2018-06-29T05:49:34.828Z,52.86
2018-06-29T05:51:05.259Z,52.73
2018-06-29T05:51:35.015Z,52.66
2018-06-29T05:52:35.181Z,52.77
2018-06-29T05:53:34.833Z,52.78
2018-06-29T05:54:35.135Z,52.73
2018-06-29T05:55:35.003Z,52.84
2018-06-29T05:56:35.152Z,52.78
2018-06-29T05:57:35.250Z,52.76
2018-06-29T05:58:34.895Z,52.87
2018-06-29T05:59:34.902Z,52.79
2018-06-29T06:00:34.772Z,52.8
2018-06-29T06:01:34.910Z,52.87
2018-06-29T06:02:34.765Z,52.81
2018-06-29T06:03:34.806Z,52.65
2018-06-29T06:04:35.069Z,52.81
2018-06-29T06:05:34.794Z,52.78
2018-06-29T06:06:34.990Z,52.85
2018-06-29T06:07:34.945Z,52.76
2018-06-29T06:08:34.797Z,52.62
2018-06-29T06:09:34.956Z,52.84
2018-06-29T06:10:34.931Z,52.87
2018-06-29T06:11:34.728Z,52.84
2018-06-29T06:12:35.000Z,52.85
2018-06-29T06:13:34.773Z,52.77
2018-06-29T06:14:35.005Z,52.96
2018-06-29T06:15:34.968Z,52.85
2018-06-29T06:16:34.770Z,52.75
2018-06-29T06:17:34.700Z,52.76
2018-06-29T06:18:35.110Z,52.74
2018-06-29T06:19:35.026Z,52.71
2018-06-29T06:20:34.705Z,52.85
2018-06-29T06:21:34.913Z,52.75
2018-06-29T06:22:34.874Z,52.77
2018-06-29T06:23:34.776Z,52.83
2018-06-29T06:24:35.012Z,52.81
2018-06-29T06:25:34.742Z,52.86
2018-06-29T06:26:35.023Z,52.71
2018-06-29T06:27:34.933Z,52.89
2018-06-29T06:28:34.923Z,52.97
2018-06-29T06:29:34.727Z,52.77
2018-06-29T06:30:34.713Z,52.95
2018-06-29T06:31:34.785Z,52.82
2018-06-29T06:32:34.755Z,53.01
2018-06-29T06:33:34.931Z,52.8
2018-06-29T06:34:34.701Z,52.79
2018-06-29T06:35:34.856Z,52.8
2018-06-29T06:36:34.921Z,52.7
2018-06-29T06:37:34.941Z,52.79
2018-06-29T06:38:34.755Z,52.86
2018-06-29T06:39:34.942Z,52.83
2018-06-29T06:40:34.997Z,52.8
2018-06-29T06:42:05.204Z,52.88
2018-06-29T06:42:34.870Z,52.75
2018-06-29T06:43:34.735Z,52.88
2018-06-29T06:44:34.716Z,52.8
2018-06-29T06:45:34.979Z,52.83
2018-06-29T06:46:34.801Z,52.78
2018-06-29T06:47:34.876Z,52.78
2018-06-29T06:48:35.012Z,52.71
2018-06-29T06:49:35.009Z,52.77
2018-06-29T06:50:34.980Z,52.89
2018-06-29T06:51:34.957Z,52.82
2018-06-29T06:52:36.208Z,52.84
2018-06-29T06:53:34.704Z,52.75
2018-06-29T06:54:34.850Z,52.89
2018-06-29T06:55:34.709Z,52.86
2018-06-29T06:56:34.917Z,52.79
2018-06-29T06:57:34.814Z,52.87
2018-06-29T06:58:34.780Z,52.88
2018-06-29T06:59:34.728Z,52.84
2018-06-29T07:00:35.003Z,52.75
2018-06-29T07:01:34.859Z,52.82
2018-06-29T07:02:34.846Z,52.67
2018-06-29T07:03:34.861Z,52.86
2018-06-29T07:04:34.868Z,52.82
2018-06-29T07:05:34.913Z,52.77
2018-06-29T07:06:34.862Z,52.75
2018-06-29T07:07:34.670Z,53.04
2018-06-29T07:08:34.980Z,52.99
2018-06-29T07:09:34.773Z,53.07
2018-06-29T07:10:34.707Z,52.8
2018-06-29T07:11:34.767Z,52.71
2018-06-29T07:12:34.925Z,52.71
2018-06-29T07:13:34.805Z,52.88
2018-06-29T07:14:34.887Z,52.88
2018-06-29T07:15:34.806Z,52.96
2018-06-29T07:16:34.880Z,53.03
2018-06-29T07:17:34.823Z,52.86
2018-06-29T07:18:34.742Z,53.05
2018-06-29T07:19:34.723Z,52.91
2018-06-29T07:20:34.613Z,53.05
2018-06-29T07:21:34.825Z,53
2018-06-29T07:22:34.931Z,53.12
2018-06-29T07:23:34.835Z,52.92
2018-06-29T07:24:35.276Z,52.99
2018-06-29T07:25:34.929Z,53
2018-06-29T07:26:34.758Z,53.01
2018-06-29T07:27:35.038Z,53.03
2018-06-29T07:28:34.947Z,53.03
2018-06-29T07:29:34.827Z,52.99
2018-06-29T07:30:34.777Z,52.85
2018-06-29T07:31:34.716Z,53.06
2018-06-29T07:32:34.964Z,53.04
2018-06-29T07:33:34.944Z,53.05
2018-06-29T07:34:34.773Z,53.06
2018-06-29T07:35:34.914Z,53.04
2018-06-29T07:36:34.884Z,53
2018-06-29T07:37:34.670Z,53.01
2018-06-29T07:38:34.791Z,53.05
2018-06-29T07:39:34.711Z,53.2
2018-06-29T07:40:34.815Z,52.92
2018-06-29T07:41:34.697Z,53
2018-06-29T07:42:34.805Z,52.95
2018-06-29T07:43:34.721Z,53.06
2018-06-29T07:44:34.676Z,53.1
2018-06-29T07:45:34.805Z,52.97
2018-06-29T07:46:35.144Z,53
2018-06-29T07:47:34.883Z,53.02
2018-06-29T07:48:35.008Z,52.92
2018-06-29T07:49:34.699Z,52.96
2018-06-29T07:50:35.044Z,53.01
2018-06-29T07:51:34.987Z,53.02
2018-06-29T07:52:34.924Z,53
2018-06-29T07:53:34.672Z,53.11
2018-06-29T07:54:34.710Z,53.01
2018-06-29T07:55:34.804Z,52.88
2018-06-29T07:56:35.024Z,52.85
2018-06-29T07:57:34.981Z,52.87
2018-06-29T07:58:35.028Z,52.92
2018-06-29T07:59:34.893Z,53.04
2018-06-29T08:00:34.839Z,53.07
2018-06-29T08:01:34.898Z,53.03
2018-06-29T08:02:34.826Z,53.04
2018-06-29T08:03:34.850Z,53.07
2018-06-29T08:04:34.733Z,53.03
2018-06-29T08:05:34.832Z,53.05
2018-06-29T08:06:34.977Z,52.94
2018-06-29T08:07:34.727Z,52.96
2018-06-29T08:08:34.841Z,52.92
2018-06-29T08:09:34.854Z,53.04
2018-06-29T08:10:34.932Z,52.89
2018-06-29T08:11:34.879Z,53.08
2018-06-29T08:12:34.827Z,52.94
2018-06-29T08:13:34.877Z,52.96
2018-06-29T08:14:34.769Z,53.12
2018-06-29T08:15:34.770Z,53.09
2018-06-29T08:16:34.772Z,52.94
2018-06-29T08:17:34.801Z,52.93
2018-06-29T08:18:34.805Z,52.91
2018-06-29T08:19:34.849Z,52.91
2018-06-29T08:20:34.804Z,52.93
2018-06-29T08:21:34.817Z,52.98
2018-06-29T08:22:34.818Z,52.93
2018-06-29T08:23:34.832Z,53.06
2018-06-29T08:24:34.845Z,53.11
2018-06-29T08:25:34.844Z,53.01
2018-06-29T08:26:34.979Z,52.9
2018-06-29T08:27:34.933Z,52.97
2018-06-29T08:28:34.862Z,53.12
2018-06-29T08:29:34.949Z,52.95
2018-06-29T08:30:34.907Z,52.93
2018-06-29T08:31:34.883Z,52.97
2018-06-29T08:32:34.899Z,52.91
2018-06-29T08:33:34.893Z,53
2018-06-29T08:34:34.917Z,52.89
2018-06-29T08:35:35.008Z,52.85
2018-06-29T08:36:34.922Z,52.88
2018-06-29T08:37:35.009Z,52.98
2018-06-29T08:38:34.999Z,52.89
2018-06-29T08:39:34.932Z,52.95
2018-06-29T08:40:34.936Z,52.95
2018-06-29T08:41:34.931Z,52.98
2018-06-29T08:42:34.939Z,52.86
2018-06-29T08:43:34.943Z,52.92
2018-06-29T08:44:34.950Z,52.96
2018-06-29T08:45:34.960Z,53.03
2018-06-29T08:46:35.009Z,52.92
2018-06-29T08:47:34.969Z,53.03
2018-06-29T08:48:34.965Z,53.05
2018-06-29T08:49:35.070Z,52.92
2018-06-29T08:50:34.982Z,52.95
2018-06-29T08:51:34.985Z,52.98
2018-06-29T08:52:34.991Z,52.92
2018-06-29T08:53:35.005Z,52.97
2018-06-29T08:54:35.064Z,52.99
2018-06-29T08:55:35.066Z,53.07
2018-06-29T08:56:34.765Z,52.96
2018-06-29T08:57:34.820Z,52.99
2018-06-29T08:58:35.009Z,52.96
2018-06-29T08:59:35.025Z,52.95
2018-06-29T09:00:35.020Z,52.89
2018-06-29T09:01:34.986Z,52.9
2018-06-29T09:02:35.033Z,52.91
2018-06-29T09:03:35.057Z,52.9
2018-06-29T09:04:35.068Z,52.89
2018-06-29T09:05:35.041Z,52.97
2018-06-29T09:06:34.700Z,53.08
2018-06-29T09:07:34.647Z,52.9
2018-06-29T09:08:34.750Z,52.87
2018-06-29T09:09:35.045Z,52.96
2018-06-29T09:10:34.841Z,53.07
2018-06-29T09:11:34.874Z,52.91
2018-06-29T09:12:35.096Z,52.85
2018-06-29T09:13:34.893Z,52.97
2018-06-29T09:14:35.121Z,52.83
2018-06-29T09:15:35.113Z,52.95
2018-06-29T09:16:34.714Z,52.9
2018-06-29T09:17:35.120Z,52.91
2018-06-29T09:18:35.269Z,52.91
2018-06-29T09:19:35.098Z,52.8
2018-06-29T09:20:35.106Z,52.83
2018-06-29T09:21:35.152Z,52.88
2018-06-29T09:22:34.682Z,52.92
2018-06-29T09:23:54.630Z,52.93
2018-06-29T09:24:34.817Z,52.93
2018-06-29T09:25:34.895Z,52.92
2018-06-29T09:26:34.703Z,52.94
2018-06-29T09:27:34.850Z,52.99
2018-06-29T09:28:35.009Z,53.03
2018-06-29T09:29:34.936Z,52.86
2018-06-29T09:30:34.956Z,52.9
2018-06-29T09:31:34.742Z,53.06
2018-06-29T09:32:34.787Z,52.91
2018-06-29T09:33:35.031Z,52.88
2018-06-29T09:34:34.835Z,52.79
2018-06-29T09:35:34.751Z,52.93
2018-06-29T09:36:34.942Z,53.03
2018-06-29T09:37:34.666Z,52.87
2018-06-29T09:38:35.044Z,52.85
2018-06-29T09:39:35.064Z,52.86
2018-06-29T09:40:35.022Z,52.9
2018-06-29T09:41:34.840Z,52.82
2018-06-29T09:42:35.379Z,53.01
2018-06-29T09:43:34.847Z,52.7
2018-06-29T09:44:34.683Z,52.87
2018-06-29T09:45:34.903Z,53.03
2018-06-29T09:46:34.853Z,52.68
2018-06-29T09:47:35.086Z,52.92
2018-06-29T09:48:35.095Z,52.85
2018-06-29T09:49:34.775Z,52.9
2018-06-29T09:50:34.843Z,52.91
2018-06-29T09:51:35.318Z,52.83
2018-06-29T09:52:34.729Z,52.87
2018-06-29T09:53:34.687Z,52.82
2018-06-29T09:54:34.975Z,52.9
2018-06-29T09:55:34.913Z,52.83
2018-06-29T09:56:34.840Z,53.01
2018-06-29T09:57:34.792Z,53.02
2018-06-29T09:58:34.768Z,52.84
2018-06-29T09:59:35.161Z,52.72
2018-06-29T10:00:34.930Z,52.83
2018-06-29T10:01:34.676Z,52.79
2018-06-29T10:02:44.798Z,52.88
2018-06-29T10:03:34.871Z,52.83
2018-06-29T10:04:34.695Z,52.9
2018-06-29T10:05:34.693Z,52.83
2018-06-29T10:06:34.892Z,52.87
2018-06-29T10:07:34.940Z,52.86
2018-06-29T10:08:34.809Z,52.86
2018-06-29T10:09:34.851Z,52.89
2018-06-29T10:10:34.962Z,52.82
2018-06-29T10:11:34.700Z,52.88
2018-06-29T10:12:34.722Z,52.83
2018-06-29T10:13:34.878Z,52.9
2018-06-29T10:14:34.703Z,52.88
2018-06-29T10:15:34.809Z,53.13
2018-06-29T10:16:34.759Z,52.8
2018-06-29T10:17:34.702Z,52.91
2018-06-29T10:18:34.857Z,52.91
2018-06-29T10:19:34.897Z,52.93
2018-06-29T10:20:34.957Z,52.94
2018-06-29T10:21:34.887Z,52.86
2018-06-29T10:22:35.013Z,52.83
2018-06-29T10:23:34.682Z,52.86
2018-06-29T10:24:34.882Z,52.89
2018-06-29T10:25:34.943Z,52.91
2018-06-29T10:26:34.869Z,53.06
2018-06-29T10:27:34.710Z,52.89
2018-06-29T10:28:34.867Z,52.91
2018-06-29T10:29:34.873Z,52.87
2018-06-29T10:30:34.916Z,52.92
2018-06-29T10:31:34.671Z,52.73
2018-06-29T10:32:34.657Z,53.02
2018-06-29T10:33:34.992Z,52.88
2018-06-29T10:34:34.613Z,52.85
2018-06-29T10:35:34.758Z,52.87
2018-06-29T10:36:34.861Z,52.83
2018-06-29T10:37:34.898Z,53.01
2018-06-29T10:38:34.660Z,52.74
2018-06-29T10:39:34.795Z,53.03
2018-06-29T10:40:34.656Z,52.8
2018-06-29T10:41:34.875Z,52.82
2018-06-29T10:42:34.664Z,52.74
2018-06-29T10:43:34.856Z,52.79
2018-06-29T10:44:34.994Z,52.88
2018-06-29T10:45:34.780Z,52.88
2018-06-29T10:46:34.858Z,52.94
2018-06-29T10:47:34.791Z,52.94
2018-06-29T10:48:34.783Z,52.82
2018-06-29T10:49:34.784Z,52.74
2018-06-29T10:50:34.677Z,52.75
2018-06-29T10:51:34.695Z,52.79
2018-06-29T10:52:34.859Z,52.83
2018-06-29T10:53:34.841Z,52.86
2018-06-29T10:54:34.665Z,52.75
2018-06-29T10:55:34.808Z,52.85
2018-06-29T10:56:34.875Z,52.9
2018-06-29T10:57:34.868Z,52.89
2018-06-29T10:58:34.834Z,52.85
2018-06-29T10:59:34.820Z,52.84
2018-06-29T11:00:34.829Z,52.82
2018-06-29T11:01:34.750Z,52.88
2018-06-29T11:02:34.694Z,52.83
2018-06-29T11:03:34.847Z,52.89
2018-06-29T11:04:34.647Z,52.88
2018-06-29T11:05:34.958Z,52.8
2018-06-29T11:06:34.780Z,52.89
2018-06-29T11:07:34.606Z,52.92
2018-06-29T11:08:34.680Z,52.9
2018-06-29T11:09:34.843Z,52.86
2018-06-29T11:10:34.786Z,52.95
2018-06-29T11:11:34.878Z,52.76
2018-06-29T11:12:34.755Z,52.81
2018-06-29T11:13:34.953Z,52.94
2018-06-29T11:14:34.680Z,52.84
2018-06-29T11:15:34.679Z,52.83
2018-06-29T11:16:35.091Z,52.88
2018-06-29T11:17:34.730Z,52.82
2018-06-29T11:18:34.857Z,52.88
2018-06-29T11:19:34.986Z,52.96
2018-06-29T11:20:34.718Z,52.66
2018-06-29T11:21:34.944Z,52.88
2018-06-29T11:22:35.121Z,52.97
2018-06-29T11:23:34.846Z,52.75
2018-06-29T11:24:34.763Z,52.85
2018-06-29T11:25:34.768Z,52.88
2018-06-29T11:26:34.721Z,52.83
2018-06-29T11:27:34.714Z,52.88
2018-06-29T11:28:34.901Z,52.83
2018-06-29T11:29:34.856Z,52.83
2018-06-29T11:30:35.072Z,52.83
2018-06-29T11:31:34.977Z,52.86
2018-06-29T11:32:34.754Z,52.79
2018-06-29T11:33:34.839Z,52.8
2018-06-29T11:34:34.824Z,52.85
2018-06-29T11:35:34.790Z,52.85
2018-06-29T11:36:34.662Z,52.98
2018-06-29T11:37:34.644Z,52.82
2018-06-29T11:38:34.737Z,52.86
2018-06-29T11:39:34.911Z,52.88
2018-06-29T11:40:34.722Z,52.82
2018-06-29T11:41:35.115Z,52.79
2018-06-29T11:42:34.935Z,52.87
2018-06-29T11:43:34.812Z,52.87
2018-06-29T11:44:34.789Z,52.8
2018-06-29T11:45:34.918Z,52.81
2018-06-29T11:46:34.977Z,52.87
2018-06-29T11:47:34.906Z,52.94
2018-06-29T11:48:34.822Z,52.85
2018-06-29T11:49:34.756Z,52.84
2018-06-29T11:50:34.735Z,52.82
2018-06-29T11:51:34.772Z,52.88
2018-06-29T11:52:34.774Z,52.95
2018-06-29T11:53:34.655Z,52.8
2018-06-29T11:54:34.770Z,53.04
2018-06-29T11:55:34.794Z,52.75
2018-06-29T11:56:34.775Z,52.65
2018-06-29T11:57:34.717Z,53.01
2018-06-29T11:58:34.781Z,52.78
2018-06-29T11:59:34.721Z,52.84
2018-06-29T12:00:34.922Z,52.9
2018-06-29T12:01:34.843Z,52.81
2018-06-29T12:02:34.666Z,53.04
2018-06-29T12:03:34.757Z,52.99
2018-06-29T12:04:34.827Z,52.77
2018-06-29T12:05:34.644Z,52.78
2018-06-29T12:06:34.684Z,52.94
2018-06-29T12:07:34.745Z,52.93
2018-06-29T12:08:34.948Z,53.14
2018-06-29T12:09:34.664Z,52.95
2018-06-29T12:10:34.963Z,52.77
2018-06-29T12:11:34.816Z,53.01
2018-06-29T12:12:34.650Z,52.84
2018-06-29T12:13:34.737Z,52.82
2018-06-29T12:14:34.886Z,52.88
2018-06-29T12:15:34.838Z,52.79
2018-06-29T12:16:34.863Z,52.84
2018-06-29T12:17:34.642Z,52.88
2018-06-29T12:18:34.675Z,52.85
2018-06-29T12:19:34.726Z,52.93
2018-06-29T12:20:34.564Z,52.81
2018-06-29T12:21:34.935Z,52.91
2018-06-29T12:22:34.661Z,52.79
2018-06-29T12:23:34.838Z,52.78
2018-06-29T12:24:34.881Z,52.96
2018-06-29T12:25:34.865Z,52.89
2018-06-29T12:26:34.776Z,52.91
2018-06-29T12:27:34.779Z,52.85
2018-06-29T12:28:34.821Z,52.99
2018-06-29T12:29:35.205Z,52.88
2018-06-29T12:30:34.722Z,52.9
2018-06-29T12:31:34.754Z,52.8
2018-06-29T12:32:34.753Z,53.04
2018-06-29T12:33:34.915Z,52.81
2018-06-29T12:34:34.828Z,52.85
2018-06-29T12:35:36.357Z,52.83
2018-06-29T12:36:35.593Z,52.9
2018-06-29T12:37:34.730Z,52.75
2018-06-29T12:38:34.729Z,52.82
2018-06-29T12:39:34.800Z,52.99
2018-06-29T12:40:34.744Z,52.78
2018-06-29T12:41:34.747Z,52.84
2018-06-29T12:42:34.915Z,52.9
2018-06-29T12:43:34.661Z,52.81
2018-06-29T12:44:34.793Z,52.77
2018-06-29T12:45:35.325Z,52.89
2018-06-29T12:46:34.719Z,52.9
2018-06-29T12:47:34.671Z,52.79
2018-06-29T12:48:34.860Z,52.84
2018-06-29T12:49:34.775Z,52.89
2018-06-29T12:50:34.779Z,52.75
2018-06-29T12:51:34.880Z,52.95
2018-06-29T12:52:34.709Z,52.89
2018-06-29T12:53:34.810Z,52.86
2018-06-29T12:54:35.670Z,52.99
2018-06-29T12:55:34.695Z,52.9